createdAt,value
2018-07-11T00:01:15.702Z,12.53
2018-07-11T00:03:48.911Z,12.50
2018-07-11T00:06:19.463Z,12.32
2018-07-11T00:08:48.737Z,12.11
2018-07-11T00:11:17.433Z,11.92
2018-07-11T00:13:47.117Z,11.84
2018-07-11T00:16:16.316Z,11.86
2018-07-11T00:18:45.029Z,11.99
2018-07-11T00:21:14.066Z,12.13
2018-07-11T00:23:43.269Z,12.27
2018-07-11T00:26:12.623Z,12.37
2018-07-11T00:28:41.257Z,12.44
2018-07-11T00:31:10.043Z,12.39
2018-07-11T00:33:38.892Z,12.39
2018-07-11T00:36:07.620Z,12.41
2018-07-11T00:38:36.857Z,12.40
2018-07-11T00:41:06.353Z,12.35
2018-07-11T00:43:35.451Z,12.29
2018-07-11T00:46:05.633Z,12.22
2018-07-11T00:48:35.187Z,12.15
2018-07-11T00:51:04.721Z,12.09
2018-07-11T00:53:35.906Z,12.14
2018-07-11T00:56:04.869Z,12.08
2018-07-11T00:58:36.344Z,12.00
2018-07-11T01:01:11.608Z,11.95
2018-07-11T01:03:49.423Z,11.83
2018-07-11T01:06:19.584Z,11.70
2018-07-11T01:08:50.999Z,11.55
2018-07-11T01:11:20.099Z,11.46
2018-07-11T01:13:49.471Z,11.43
2018-07-11T01:16:19.408Z,11.37
2018-07-11T01:18:51.494Z,11.26
2018-07-11T01:21:20.924Z,11.22
2018-07-11T01:23:49.667Z,11.19
2018-07-11T01:26:18.417Z,11.08
2018-07-11T01:28:47.588Z,11.05
2018-07-11T01:31:16.735Z,11.06
2018-07-11T01:33:46.088Z,11.14
2018-07-11T01:36:15.188Z,11.23
2018-07-11T01:38:43.994Z,11.30
2018-07-11T01:41:13.027Z,11.33
2018-07-11T01:43:41.999Z,11.36
2018-07-11T01:46:10.753Z,11.46
2018-07-11T01:48:39.454Z,11.60
2018-07-11T01:51:08.692Z,11.69
2018-07-11T01:53:38.069Z,11.78
2018-07-11T01:56:06.919Z,11.87
2018-07-11T01:58:35.717Z,11.90
2018-07-11T02:01:05.357Z,11.95
2018-07-11T02:03:34.640Z,11.99
2018-07-11T02:06:03.909Z,12.05
2018-07-11T02:08:33.310Z,12.10
2018-07-11T02:11:02.364Z,12.15
2018-07-11T02:13:31.772Z,12.25
2018-07-11T02:16:00.483Z,12.32
2018-07-11T02:18:30.397Z,12.42
2018-07-11T02:21:01.398Z,12.41
2018-07-11T02:23:38.138Z,12.36
2018-07-11T02:26:06.882Z,12.34
2018-07-11T02:28:35.568Z,12.35
2018-07-11T02:31:05.119Z,12.39
2018-07-11T02:33:33.852Z,12.39
2018-07-11T02:36:02.538Z,12.43
2018-07-11T02:38:31.306Z,12.47
2018-07-11T02:41:00.208Z,12.52
2018-07-11T02:43:29.118Z,12.48
2018-07-11T02:45:58.324Z,12.53
2018-07-11T02:48:27.050Z,12.55
2018-07-11T02:50:55.884Z,12.57
2018-07-11T02:53:25.217Z,12.61
2018-07-11T02:55:54.578Z,12.64
2018-07-11T02:58:23.399Z,12.68
2018-07-11T03:00:52.333Z,12.75
2018-07-11T03:03:21.302Z,12.80
2018-07-11T03:05:49.889Z,12.80
2018-07-11T03:08:19.002Z,12.85
2018-07-11T03:10:48.028Z,12.84
2018-07-11T03:13:20.662Z,12.79
2018-07-11T03:15:49.375Z,12.78
2018-07-11T03:18:18.294Z,12.82
2018-07-11T03:20:47.539Z,12.91
2018-07-11T03:23:16.665Z,13.00
2018-07-11T03:25:45.588Z,13.04
2018-07-11T03:28:14.268Z,13.10
2018-07-11T03:30:43.358Z,13.13
2018-07-11T03:33:12.339Z,13.15
2018-07-11T03:35:40.994Z,13.18
2018-07-11T03:38:09.963Z,13.19
2018-07-11T03:40:39.469Z,13.21
2018-07-11T03:43:09.205Z,13.23
2018-07-11T03:45:38.693Z,13.26
2018-07-11T03:48:08.128Z,13.29
2018-07-11T03:50:37.169Z,13.33
2018-07-11T03:53:05.969Z,13.34
2018-07-11T03:55:35.624Z,13.36
2018-07-11T03:58:04.673Z,13.35
2018-07-11T04:00:33.675Z,13.37
2018-07-11T04:03:02.873Z,13.38
2018-07-11T04:05:31.687Z,13.41
2018-07-11T04:08:00.717Z,13.43
2018-07-11T04:10:29.502Z,13.46
2018-07-11T04:13:00.998Z,13.50
2018-07-11T04:15:29.838Z,13.54
2018-07-11T04:17:58.493Z,13.59
2018-07-11T04:20:27.629Z,13.63
2018-07-11T04:22:56.794Z,13.64
2018-07-11T04:25:25.513Z,13.69
2018-07-11T04:27:54.464Z,13.71
2018-07-11T04:30:23.240Z,13.74
2018-07-11T04:32:51.949Z,13.78
2018-07-11T04:35:20.782Z,13.82
2018-07-11T04:37:50.317Z,13.89
2018-07-11T04:40:19.290Z,13.90
2018-07-11T04:42:48.873Z,13.92
2018-07-11T04:45:17.910Z,14.00
2018-07-11T04:47:47.320Z,14.03
2018-07-11T04:50:16.459Z,14.05
2018-07-11T04:52:45.665Z,14.09
2018-07-11T04:55:14.563Z,14.08
2018-07-11T04:57:44.154Z,14.12
2018-07-11T05:00:13.094Z,14.18
2018-07-11T05:02:42.064Z,14.23
2018-07-11T05:05:10.820Z,14.30
2018-07-11T05:07:40.123Z,14.40
2018-07-11T05:10:09.264Z,14.42
2018-07-11T05:12:37.948Z,14.48
2018-07-11T05:15:06.785Z,14.54
2018-07-11T05:17:36.006Z,14.64
2018-07-11T05:20:05.164Z,14.67
2018-07-11T05:22:33.805Z,14.67
2018-07-11T05:25:02.531Z,14.66
2018-07-11T05:27:31.789Z,14.66
2018-07-11T05:30:00.936Z,14.70
2018-07-11T05:32:30.540Z,14.70
2018-07-11T05:34:59.399Z,14.68
2018-07-11T05:37:28.177Z,14.68
2018-07-11T05:39:57.149Z,14.66
2018-07-11T05:42:26.510Z,14.69
2018-07-11T05:44:55.385Z,14.77
2018-07-11T05:47:24.379Z,14.87
2018-07-11T05:49:53.184Z,14.94
2018-07-11T05:52:22.161Z,15.05
2018-07-11T05:54:51.380Z,15.11
2018-07-11T05:57:21.491Z,15.21
2018-07-11T05:59:50.720Z,15.30
2018-07-11T06:02:19.554Z,15.42
2018-07-11T06:04:49.244Z,15.53
2018-07-11T06:07:18.093Z,15.53
2018-07-11T06:09:46.771Z,15.44
2018-07-11T06:12:15.985Z,15.39
2018-07-11T06:14:44.838Z,15.32
2018-07-11T06:17:13.668Z,15.31
2018-07-11T06:19:42.680Z,15.35
2018-07-11T06:22:11.408Z,15.33
2018-07-11T06:24:40.194Z,15.30
2018-07-11T06:27:08.880Z,15.20
2018-07-11T06:29:37.641Z,15.16
2018-07-11T06:32:06.385Z,15.09
2018-07-11T06:34:35.173Z,15.06
2018-07-11T06:37:04.236Z,15.06
2018-07-11T06:39:33.405Z,15.05
2018-07-11T06:42:02.641Z,15.01
2018-07-11T06:44:31.582Z,14.98
2018-07-11T06:47:04.395Z,14.93
2018-07-11T06:49:33.222Z,14.85
2018-07-11T06:52:03.167Z,14.74
2018-07-11T06:54:32.011Z,14.67
2018-07-11T06:57:00.801Z,14.68
2018-07-11T06:59:29.978Z,14.60
2018-07-11T07:01:59.371Z,14.57
2018-07-11T07:04:28.669Z,14.51
2018-07-11T07:06:57.916Z,14.53
2018-07-11T07:09:26.680Z,14.56
2018-07-11T07:11:55.540Z,14.67
2018-07-11T07:14:24.612Z,14.90
2018-07-11T07:16:53.503Z,15.27
2018-07-11T07:19:23.017Z,15.67
2018-07-11T07:21:52.210Z,16.06
2018-07-11T07:24:21.106Z,16.57
2018-07-11T07:26:49.885Z,17.13
2018-07-11T07:29:18.876Z,17.69
2018-07-11T07:31:48.127Z,18.38
2018-07-11T07:34:17.486Z,18.75
2018-07-11T07:36:46.590Z,18.80
2018-07-11T07:39:16.818Z,18.90
2018-07-11T07:41:46.712Z,18.89
2018-07-11T07:44:15.390Z,19.13
2018-07-11T07:46:49.456Z,19.48
2018-07-11T07:49:18.587Z,19.51
2018-07-11T07:51:47.905Z,19.87
2018-07-11T07:54:16.942Z,20.89
2018-07-11T07:56:45.921Z,22.36
2018-07-11T07:59:15.336Z,24.20
2018-07-11T08:01:44.590Z,26.13
2018-07-11T08:04:13.726Z,26.13
2018-07-11T08:06:43.137Z,25.11
2018-07-11T08:09:11.977Z,24.59
2018-07-11T08:11:40.634Z,24.02
2018-07-11T08:14:09.352Z,24.65
2018-07-11T08:16:39.145Z,24.90
2018-07-11T08:19:08.077Z,26.19
2018-07-11T08:21:37.411Z,26.30
2018-07-11T08:24:17.291Z,25.72
2018-07-11T08:26:57.676Z,24.39
2018-07-11T08:29:53.840Z,23.38
2018-07-11T08:32:41.467Z,21.88
2018-07-11T08:35:21.680Z,20.64
2018-07-11T08:40:11.266Z,20.00
2018-07-11T08:42:51.742Z,19.40
2018-07-11T08:45:42.775Z,19.36
2018-07-11T08:48:20.551Z,19.77
2018-07-11T08:50:59.158Z,20.30
2018-07-11T08:53:38.977Z,22.55
2018-07-11T08:56:18.372Z,25.88
2018-07-11T08:59:17.067Z,26.11
2018-07-11T09:01:56.215Z,24.69
2018-07-11T09:04:35.992Z,23.37
2018-07-11T09:07:48.301Z,21.99
2018-07-11T09:11:36.876Z,21.36
2018-07-11T09:16:23.345Z,20.51
2018-07-11T09:19:38.430Z,19.99
2018-07-11T09:22:15.484Z,19.23
2018-07-11T09:24:45.504Z,19.00
2018-07-11T09:27:14.636Z,18.95
2018-07-11T09:29:44.385Z,18.85
2018-07-11T09:32:13.755Z,18.70
2018-07-11T09:34:43.296Z,18.99
2018-07-11T09:37:12.852Z,19.27
2018-07-11T09:39:42.363Z,19.30
2018-07-11T09:42:11.185Z,19.48
2018-07-11T09:44:40.180Z,19.52
2018-07-11T09:47:14.637Z,19.96
2018-07-11T09:49:43.867Z,20.60
2018-07-11T09:52:12.766Z,21.36
2018-07-11T09:54:41.695Z,21.61
2018-07-11T09:57:11.192Z,21.28
2018-07-11T09:59:40.566Z,21.07
2018-07-11T10:02:09.721Z,20.70
2018-07-11T10:04:38.591Z,20.37
2018-07-11T10:07:07.443Z,20.48
2018-07-11T10:09:36.377Z,20.49
2018-07-11T10:12:05.793Z,20.89
2018-07-11T10:14:35.226Z,21.23
2018-07-11T10:17:04.069Z,21.39
2018-07-11T10:19:32.830Z,21.37
2018-07-11T10:22:01.552Z,20.91
2018-07-11T10:24:30.685Z,20.91
2018-07-11T10:26:59.416Z,21.19
2018-07-11T10:29:28.591Z,22.49
2018-07-11T10:31:57.445Z,24.54
2018-07-11T10:34:26.377Z,27.84
2018-07-11T10:36:56.211Z,30.34
2018-07-11T10:39:25.526Z,30.90
2018-07-11T10:41:54.583Z,30.85
2018-07-11T10:44:23.395Z,31.63
2018-07-11T10:46:56.929Z,32.62
2018-07-11T10:49:25.877Z,33.89
2018-07-11T10:51:54.781Z,34.71
2018-07-11T10:54:23.677Z,31.56
2018-07-11T10:56:52.634Z,28.49
2018-07-11T10:59:21.713Z,26.43
2018-07-11T11:01:50.651Z,25.98
2018-07-11T11:04:23.067Z,25.11
2018-07-11T11:06:52.171Z,24.56
2018-07-11T11:09:21.145Z,24.44
2018-07-11T11:11:50.049Z,24.19
2018-07-11T11:14:18.772Z,23.78
2018-07-11T11:16:47.533Z,23.99
2018-07-11T11:19:16.380Z,24.24
2018-07-11T11:21:45.436Z,23.74
2018-07-11T11:24:14.357Z,23.56
2018-07-11T11:26:43.327Z,23.53
2018-07-11T11:29:12.192Z,22.73
2018-07-11T11:31:41.032Z,22.20
2018-07-11T11:34:09.911Z,21.49
2018-07-11T11:36:39.176Z,21.10
2018-07-11T11:39:08.018Z,20.61
2018-07-11T11:41:37.694Z,20.09
2018-07-11T11:44:07.387Z,20.06
2018-07-11T11:46:36.928Z,20.11
2018-07-11T11:49:07.191Z,19.97
2018-07-11T11:51:36.418Z,19.84
2018-07-11T11:54:05.762Z,19.88
2018-07-11T11:56:34.541Z,20.02
2018-07-11T11:59:04.311Z,20.27
2018-07-11T12:01:33.556Z,20.91
2018-07-11T12:04:02.589Z,21.33
2018-07-11T12:06:31.861Z,22.12
2018-07-11T12:09:00.987Z,22.87
2018-07-11T12:11:29.807Z,23.41
2018-07-11T12:13:58.622Z,23.54
2018-07-11T12:16:27.735Z,23.47
2018-07-11T12:18:56.812Z,23.49
2018-07-11T12:21:26.073Z,23.55
2018-07-11T12:23:55.335Z,23.67
2018-07-11T12:26:24.457Z,23.33
2018-07-11T12:28:53.482Z,23.23
2018-07-11T12:31:22.352Z,23.00
2018-07-11T12:33:51.221Z,22.77
2018-07-11T12:36:20.402Z,22.64
2018-07-11T12:38:53.642Z,22.61
2018-07-11T12:41:22.861Z,22.60
2018-07-11T12:43:52.267Z,22.84
2018-07-11T12:46:21.179Z,22.77
2018-07-11T12:48:55.261Z,22.82
2018-07-11T12:51:24.382Z,22.53
2018-07-11T12:53:53.116Z,22.50
2018-07-11T12:56:22.052Z,22.33
2018-07-11T12:58:51.213Z,22.16
2018-07-11T13:01:20.157Z,21.95
2018-07-11T13:03:48.902Z,21.61
2018-07-11T13:06:18.207Z,21.48
2018-07-11T13:08:47.184Z,21.27
2018-07-11T13:11:16.273Z,21.31
2018-07-11T13:13:45.333Z,21.18
2018-07-11T13:16:15.080Z,21.23
2018-07-11T13:18:44.088Z,20.99
2018-07-11T13:21:12.954Z,21.11
2018-07-11T13:23:41.716Z,21.19
2018-07-11T13:26:10.704Z,21.38
2018-07-11T13:28:40.137Z,21.43
2018-07-11T13:31:09.307Z,21.82
2018-07-11T13:33:38.351Z,21.98
2018-07-11T13:36:07.659Z,21.60
2018-07-11T13:38:36.821Z,21.65
2018-07-11T13:41:06.104Z,21.58
2018-07-11T13:43:35.358Z,21.51
2018-07-11T13:46:04.460Z,21.64
2018-07-11T13:48:33.778Z,22.04
2018-07-11T13:51:02.917Z,22.32
2018-07-11T13:53:32.192Z,22.85
2018-07-11T13:56:01.618Z,23.27
2018-07-11T13:58:30.822Z,23.43
2018-07-11T14:00:59.984Z,23.52
2018-07-11T14:03:28.911Z,23.68
2018-07-11T14:05:58.278Z,23.38
2018-07-11T14:08:27.169Z,23.32
2018-07-11T14:10:56.080Z,23.31
2018-07-11T14:13:25.127Z,23.35
2018-07-11T14:15:54.457Z,23.04
2018-07-11T14:18:23.377Z,23.38
2018-07-11T14:20:52.597Z,23.51
2018-07-11T14:23:32.524Z,23.64
2018-07-11T14:26:01.875Z,23.34
2018-07-11T14:28:32.039Z,23.15
2018-07-11T14:31:01.353Z,23.02
2018-07-11T14:33:32.387Z,23.09
2018-07-11T14:36:02.237Z,23.48
2018-07-11T14:38:31.582Z,23.47
2018-07-11T14:41:02.336Z,23.55
2018-07-11T14:43:31.532Z,23.81
2018-07-11T14:46:00.478Z,23.75
2018-07-11T14:48:30.512Z,23.63
2018-07-11T14:51:00.932Z,23.45
2018-07-11T14:53:30.202Z,23.21
2018-07-11T14:55:59.212Z,22.50
2018-07-11T14:58:28.151Z,22.66
2018-07-11T15:00:56.996Z,22.90
2018-07-11T15:03:26.617Z,23.25
2018-07-11T15:05:56.219Z,23.40
2018-07-11T15:08:25.155Z,23.05
2018-07-11T15:10:53.849Z,22.84
2018-07-11T15:13:23.853Z,22.79
2018-07-11T15:15:53.301Z,22.92
2018-07-11T15:18:22.288Z,22.67
2018-07-11T15:20:51.214Z,22.47
2018-07-11T15:23:19.950Z,22.21
2018-07-11T15:25:48.715Z,22.13
2018-07-11T15:28:17.842Z,22.16
2018-07-11T15:30:46.983Z,22.15
2018-07-11T15:33:16.067Z,21.97
2018-07-11T15:35:44.888Z,21.64
2018-07-11T15:38:14.047Z,21.41
2018-07-11T15:40:43.376Z,21.30
2018-07-11T15:43:12.461Z,21.12
2018-07-11T15:45:41.733Z,21.10
2018-07-11T15:48:11.383Z,21.05
2018-07-11T15:50:40.895Z,21.02
2018-07-11T15:53:09.796Z,21.05
2018-07-11T15:55:38.628Z,20.90
2018-07-11T15:58:11.859Z,20.81
2018-07-11T16:00:41.962Z,20.66
2018-07-11T16:03:12.831Z,20.55
2018-07-11T16:05:45.489Z,20.54
2018-07-11T16:08:19.636Z,20.67
2018-07-11T16:10:55.435Z,20.99
2018-07-11T16:13:24.929Z,21.08
2018-07-11T16:15:54.487Z,21.39
2018-07-11T16:18:23.417Z,21.64
2018-07-11T16:20:52.324Z,21.73
2018-07-11T16:23:21.373Z,21.65
2018-07-11T16:25:51.020Z,21.58
2018-07-11T16:28:19.986Z,21.55
2018-07-11T16:30:49.269Z,21.54
2018-07-11T16:33:18.457Z,21.59
2018-07-11T16:35:47.122Z,21.68
2018-07-11T16:38:15.924Z,21.71
2018-07-11T16:40:44.922Z,21.81
2018-07-11T16:43:14.752Z,21.83
2018-07-11T16:45:43.929Z,22.01
2018-07-11T16:48:12.854Z,22.13
2018-07-11T16:50:42.033Z,22.18
2018-07-11T16:53:11.246Z,22.04
2018-07-11T16:55:40.748Z,21.84
2018-07-11T16:58:10.983Z,21.63
2018-07-11T17:00:40.304Z,21.36
2018-07-11T17:03:11.552Z,21.14
2018-07-11T17:05:57.803Z,20.84
2018-07-11T17:08:30.083Z,20.51
2018-07-11T17:11:30.415Z,20.33
2018-07-11T17:14:06.549Z,20.21
2018-07-11T17:16:43.567Z,20.17
2018-07-11T17:19:16.568Z,20.24
2018-07-11T17:21:47.200Z,20.34
2018-07-11T17:24:18.314Z,20.45
2018-07-11T17:26:48.617Z,20.65
2018-07-11T17:29:22.939Z,20.72
2018-07-11T17:31:59.482Z,20.73
2018-07-11T17:34:28.403Z,20.65
2018-07-11T17:37:01.193Z,20.60
2018-07-11T17:39:41.823Z,20.51
2018-07-11T17:42:12.012Z,20.37
2018-07-11T17:44:45.057Z,20.33
2018-07-11T17:47:15.109Z,20.30
2018-07-11T17:49:49.164Z,20.23
2018-07-11T17:52:17.886Z,20.21
2018-07-11T17:54:53.522Z,20.13
2018-07-11T17:57:36.438Z,20.07
2018-07-11T18:00:08.416Z,19.98
2018-07-11T18:02:48.848Z,19.91
2018-07-11T18:05:26.124Z,19.87
2018-07-11T18:07:56.641Z,19.89
2018-07-11T18:10:33.993Z,19.91
2018-07-11T18:13:15.907Z,19.88
2018-07-11T18:15:52.848Z,19.90
2018-07-11T18:18:32.800Z,19.88
2018-07-11T18:21:13.297Z,19.90
2018-07-11T18:24:18.864Z,19.91
2018-07-11T18:27:04.525Z,19.80
2018-07-11T18:29:45.138Z,19.65
2018-07-11T18:32:21.487Z,19.51
2018-07-11T18:35:02.970Z,19.35
2018-07-11T18:38:24.124Z,19.17
2018-07-11T18:41:17.093Z,18.93
2018-07-11T18:43:54.129Z,18.70
2018-07-11T18:46:36.529Z,18.60
2018-07-11T18:49:20.506Z,18.53
2018-07-11T18:51:55.926Z,18.40
2018-07-11T18:55:09.409Z,18.31
2018-07-11T18:58:49.978Z,18.17
2018-07-11T19:01:31.081Z,17.86
2018-07-11T19:04:09.743Z,17.72
2018-07-11T19:06:49.409Z,17.52
2018-07-11T19:09:59.782Z,17.38
2018-07-11T19:12:34.519Z,17.24
2018-07-11T19:15:10.866Z,17.11
2018-07-11T19:17:47.659Z,16.95
2018-07-11T19:21:31.448Z,16.88
2018-07-11T19:24:08.058Z,16.72
2018-07-11T19:26:46.079Z,16.60
2018-07-11T19:29:53.161Z,16.48
2018-07-11T19:32:30.992Z,16.34
2018-07-11T19:36:10.850Z,16.23
2018-07-11T19:38:46.014Z,15.98
2018-07-11T19:41:25.950Z,15.87
2018-07-11T19:48:20.830Z,15.79
2018-07-11T19:51:12.589Z,15.49
2018-07-11T19:54:02.900Z,15.42
2018-07-11T19:56:42.936Z,15.34
2018-07-11T19:59:12.032Z,15.29
2018-07-11T20:01:40.974Z,15.23
2018-07-11T20:04:11.187Z,15.22
2018-07-11T20:06:40.381Z,15.19
2018-07-11T20:09:10.400Z,15.09
2018-07-11T20:11:40.735Z,14.95
2018-07-11T20:14:09.926Z,14.91
2018-07-11T20:16:38.934Z,14.90
2018-07-11T20:19:08.572Z,14.88
2018-07-11T20:21:37.445Z,14.84
2018-07-11T20:24:06.198Z,14.87
2018-07-11T20:26:35.295Z,14.90
2018-07-11T20:29:04.259Z,14.89
2018-07-11T20:31:33.123Z,14.95
2018-07-11T20:34:02.634Z,15.01
2018-07-11T20:36:32.084Z,15.04
2018-07-11T20:39:01.168Z,15.03
2018-07-11T20:41:30.181Z,15.08
2018-07-11T20:43:59.579Z,15.10
2018-07-11T20:46:28.970Z,15.07
2018-07-11T20:48:58.070Z,14.98
2018-07-11T20:51:30.702Z,14.98
2018-07-11T20:53:59.596Z,14.98
2018-07-11T20:56:28.621Z,14.99
2018-07-11T20:59:08.568Z,15.03
2018-07-11T21:01:48.254Z,15.03
2018-07-11T21:07:02.005Z,15.03
2018-07-11T21:12:42.618Z,14.89
2018-07-11T21:17:24.193Z,14.66
2018-07-11T21:19:52.992Z,14.47
2018-07-11T21:22:21.929Z,14.36
2018-07-11T21:24:51.183Z,14.25
2018-07-11T21:27:20.467Z,14.22
2018-07-11T21:29:49.845Z,14.18
2018-07-11T21:32:18.799Z,14.18
2018-07-11T21:34:47.508Z,14.25
2018-07-11T21:37:16.324Z,14.29
2018-07-11T21:39:45.840Z,14.35
2018-07-11T21:42:14.829Z,14.46
2018-07-11T21:44:43.956Z,14.50
2018-07-11T21:47:13.829Z,14.51
2018-07-11T21:49:42.846Z,14.47
2018-07-11T21:52:11.624Z,14.29
2018-07-11T21:54:40.463Z,14.01
2018-07-11T21:57:09.469Z,13.89
2018-07-11T21:59:38.667Z,13.78
2018-07-11T22:02:07.948Z,13.71
2018-07-11T22:04:37.102Z,13.68
2018-07-11T22:07:06.335Z,13.58
2018-07-11T22:09:35.244Z,13.43
2018-07-11T22:12:04.758Z,13.39
2018-07-11T22:14:33.640Z,13.29
2018-07-11T22:17:12.236Z,13.19
2018-07-11T22:19:39.600Z,13.06
2018-07-11T22:22:07.743Z,12.97
2018-07-11T22:24:35.118Z,12.90
2018-07-11T22:27:02.449Z,12.85
2018-07-11T22:29:30.410Z,12.82
2018-07-11T22:31:57.779Z,12.72
2018-07-11T22:34:25.085Z,12.66
2018-07-11T22:36:53.085Z,12.62
2018-07-11T22:39:20.589Z,12.63
2018-07-11T22:41:47.914Z,12.56
2018-07-11T22:44:15.300Z,12.50
2018-07-11T22:46:42.604Z,12.46
2018-07-11T22:49:10.686Z,12.43
2018-07-11T22:51:38.038Z,12.35
2018-07-11T22:54:05.365Z,12.30
2018-07-11T22:56:32.664Z,12.26
2018-07-11T22:59:00.665Z,12.20
2018-07-11T23:01:27.943Z,12.15
2018-07-11T23:03:55.359Z,12.07
2018-07-11T23:06:22.676Z,12.01
2018-07-11T23:08:49.971Z,11.92
2018-07-11T23:11:17.256Z,11.94
2018-07-11T23:13:45.345Z,11.91
2018-07-11T23:16:12.624Z,11.88
2018-07-11T23:18:39.893Z,11.82
2018-07-11T23:21:07.223Z,11.77
2018-07-11T23:23:34.480Z,11.75
2018-07-11T23:26:01.792Z,11.70
2018-07-11T23:28:29.111Z,11.70
2018-07-11T23:30:56.436Z,11.70
2018-07-11T23:33:24.279Z,11.66
2018-07-11T23:35:51.691Z,11.63
2018-07-11T23:38:19.785Z,11.60
2018-07-11T23:40:48.089Z,11.54
2018-07-11T23:43:15.359Z,11.61
2018-07-11T23:45:43.606Z,11.69
2018-07-11T23:48:11.111Z,11.81
2018-07-11T23:50:38.377Z,11.89
2018-07-11T23:53:05.655Z,11.94
2018-07-11T23:55:32.945Z,11.97
2018-07-11T23:58:00.280Z,12.04
